createdAt,value
2019-02-15T00:01:11.754Z,18.23
2019-02-15T00:03:52.839Z,15.67
2019-02-15T00:06:33.992Z,15.97
2019-02-15T00:09:14.796Z,15.77
2019-02-15T00:11:55.704Z,17.50
2019-02-15T00:14:36.610Z,15.60
2019-02-15T00:17:36.679Z,18.30
2019-02-15T00:20:18.991Z,15.93
2019-02-15T00:22:47.663Z,16.10
2019-02-15T00:25:16.416Z,15.07
2019-02-15T00:27:45.140Z,15.37
2019-02-15T00:30:14.063Z,15.63
2019-02-15T00:32:42.939Z,16.00
2019-02-15T00:35:11.898Z,15.30
2019-02-15T00:37:40.760Z,17.73
2019-02-15T00:40:09.368Z,18.50
2019-02-15T00:42:38.066Z,15.93
2019-02-15T00:45:07.594Z,16.40
2019-02-15T00:47:41.082Z,15.03
2019-02-15T00:50:11.632Z,16.13
2019-02-15T00:52:51.105Z,15.73
2019-02-15T00:55:30.406Z,14.67
2019-02-15T00:58:00.729Z,15.47
2019-02-15T01:00:40.895Z,14.50
2019-02-15T01:06:33.582Z,14.63
2019-02-15T01:09:38.176Z,14.73
2019-02-15T01:12:14.286Z,14.37
2019-02-15T01:14:43.459Z,15.63
2019-02-15T01:17:12.474Z,16.73
2019-02-15T01:19:44.693Z,17.07
2019-02-15T01:22:13.777Z,17.80
2019-02-15T01:24:42.580Z,15.77
2019-02-15T01:27:19.580Z,16.40
2019-02-15T01:29:55.456Z,16.87
2019-02-15T01:32:29.015Z,15.23
2019-02-15T01:34:59.573Z,15.70
2019-02-15T01:37:30.220Z,16.97
2019-02-15T01:40:04.131Z,15.73
2019-02-15T01:42:37.694Z,14.67
2019-02-15T01:45:25.422Z,15.93
2019-02-15T01:47:54.445Z,13.80
2019-02-15T01:50:23.340Z,15.53
2019-02-15T01:52:52.261Z,15.50
2019-02-15T01:55:20.969Z,13.53
2019-02-15T01:57:49.699Z,13.87
2019-02-15T02:00:19.903Z,13.90
2019-02-15T02:02:48.861Z,14.77
2019-02-15T02:05:17.778Z,13.97
2019-02-15T02:07:46.688Z,12.90
2019-02-15T02:10:15.860Z,15.50
2019-02-15T02:12:44.708Z,14.00
2019-02-15T02:15:13.653Z,13.53
2019-02-15T02:17:42.422Z,13.97
2019-02-15T02:20:11.107Z,14.33
2019-02-15T02:22:40.138Z,13.70
2019-02-15T02:25:09.468Z,14.23
2019-02-15T02:27:38.393Z,13.17
2019-02-15T02:30:09.295Z,14.23
2019-02-15T02:32:38.114Z,13.33
2019-02-15T02:35:08.529Z,13.00
2019-02-15T02:37:37.335Z,12.73
2019-02-15T02:40:08.943Z,14.07
2019-02-15T02:42:37.724Z,12.43
2019-02-15T02:45:08.148Z,14.30
2019-02-15T02:47:37.130Z,14.37
2019-02-15T02:50:07.432Z,14.10
2019-02-15T02:52:36.142Z,12.97
2019-02-15T02:55:05.460Z,14.40
2019-02-15T02:57:34.272Z,13.33
2019-02-15T03:00:03.137Z,12.93
2019-02-15T03:02:31.827Z,13.47
2019-02-15T03:05:00.617Z,13.63
2019-02-15T03:07:29.640Z,13.40
2019-02-15T03:09:58.262Z,13.73
2019-02-15T03:12:27.096Z,13.80
2019-02-15T03:14:56.140Z,14.03
2019-02-15T03:17:24.614Z,12.63
2019-02-15T03:19:53.263Z,13.07
2019-02-15T03:22:23.095Z,13.70
2019-02-15T03:24:51.796Z,13.60
2019-02-15T03:27:20.829Z,12.70
2019-02-15T03:29:49.790Z,14.07
2019-02-15T03:32:18.959Z,13.07
2019-02-15T03:34:47.943Z,12.60
2019-02-15T03:37:36.779Z,13.33
2019-02-15T03:40:09.861Z,12.30
2019-02-15T03:42:38.746Z,13.80
2019-02-15T03:45:08.896Z,14.00
2019-02-15T03:47:37.625Z,14.17
2019-02-15T03:50:08.332Z,13.43
2019-02-15T03:52:37.428Z,12.93
2019-02-15T03:55:06.917Z,12.00
2019-02-15T03:57:35.845Z,13.20
2019-02-15T04:00:06.861Z,12.10
2019-02-15T04:02:35.888Z,13.10
2019-02-15T04:05:06.051Z,12.70
2019-02-15T04:07:34.987Z,11.83
2019-02-15T04:10:05.172Z,13.30
2019-02-15T04:12:33.945Z,12.20
2019-02-15T04:15:03.053Z,12.37
2019-02-15T04:17:32.169Z,12.30
2019-02-15T04:20:01.141Z,11.33
2019-02-15T04:22:29.785Z,12.53
2019-02-15T04:24:58.656Z,12.97
2019-02-15T04:27:27.709Z,13.17
2019-02-15T04:29:56.384Z,13.17
2019-02-15T04:32:25.518Z,12.80
2019-02-15T04:34:54.238Z,13.17
2019-02-15T04:37:23.015Z,13.10
2019-02-15T04:39:51.694Z,13.33
2019-02-15T04:42:20.416Z,13.47
2019-02-15T04:44:49.116Z,13.60
2019-02-15T04:47:17.896Z,13.17
2019-02-15T04:49:46.714Z,11.10
2019-02-15T04:52:15.559Z,13.83
2019-02-15T04:54:44.289Z,12.20
2019-02-15T04:57:13.143Z,11.47
2019-02-15T04:59:42.291Z,12.40
2019-02-15T05:02:11.292Z,12.13
2019-02-15T05:04:40.086Z,13.27
2019-02-15T05:07:08.800Z,12.90
2019-02-15T05:09:37.499Z,12.55
2019-02-15T05:12:06.465Z,12.53
2019-02-15T05:14:35.243Z,13.60
2019-02-15T05:17:04.138Z,12.10
2019-02-15T05:19:32.762Z,12.60
2019-02-15T05:22:01.559Z,12.27
2019-02-15T05:24:30.092Z,13.15
2019-02-15T05:26:58.926Z,11.30
2019-02-15T05:29:27.499Z,12.07
2019-02-15T05:31:56.556Z,13.07
2019-02-15T05:34:25.197Z,11.60
2019-02-15T05:36:54.049Z,12.70
2019-02-15T05:39:23.042Z,10.90
2019-02-15T05:41:52.139Z,12.53
2019-02-15T05:44:21.023Z,12.83
2019-02-15T05:46:49.790Z,13.23
2019-02-15T05:49:18.952Z,12.90
2019-02-15T05:51:48.174Z,13.23
2019-02-15T05:54:18.698Z,13.37
2019-02-15T05:56:48.121Z,12.60
2019-02-15T05:59:17.572Z,14.23
2019-02-15T06:01:46.513Z,13.03
2019-02-15T06:04:16.067Z,11.30
2019-02-15T06:06:45.210Z,12.15
2019-02-15T06:09:14.311Z,13.53
2019-02-15T06:11:43.426Z,13.17
2019-02-15T06:14:12.637Z,11.83
2019-02-15T06:16:42.076Z,13.20
2019-02-15T06:19:11.970Z,13.18
2019-02-15T06:21:42.548Z,13.30
2019-02-15T06:24:12.069Z,12.97
2019-02-15T06:26:41.036Z,12.10
2019-02-15T06:29:10.294Z,12.60
2019-02-15T06:31:39.598Z,12.17
2019-02-15T06:34:08.408Z,13.20
2019-02-15T06:36:38.116Z,12.53
2019-02-15T06:39:07.952Z,13.23
2019-02-15T06:41:37.138Z,12.27
2019-02-15T06:44:07.211Z,12.67
2019-02-15T06:46:36.358Z,13.07
2019-02-15T06:49:05.780Z,13.60
2019-02-15T06:51:35.172Z,12.07
2019-02-15T06:54:04.396Z,13.60
2019-02-15T06:56:33.270Z,12.97
2019-02-15T06:59:06.748Z,13.20
2019-02-15T07:01:39.757Z,13.20
2019-02-15T07:04:10.032Z,12.10
2019-02-15T07:06:39.236Z,12.00
2019-02-15T07:09:07.986Z,11.65
2019-02-15T07:11:37.432Z,13.60
2019-02-15T07:14:06.249Z,13.20
2019-02-15T07:16:35.016Z,14.43
2019-02-15T07:19:04.227Z,13.80
2019-02-15T07:21:34.134Z,11.67
2019-02-15T07:24:02.952Z,13.40
2019-02-15T07:26:32.654Z,13.13
2019-02-15T07:29:02.075Z,12.47
2019-02-15T07:31:31.768Z,14.23
2019-02-15T07:34:01.033Z,13.80
2019-02-15T07:36:30.732Z,17.57
2019-02-15T07:38:59.758Z,15.23
2019-02-15T07:41:29.102Z,15.00
2019-02-15T07:43:58.331Z,16.33
2019-02-15T07:46:27.543Z,15.33
2019-02-15T07:48:56.733Z,15.20
2019-02-15T07:51:25.894Z,15.53
2019-02-15T07:53:55.540Z,15.27
2019-02-15T07:56:24.639Z,13.90
2019-02-15T07:58:53.846Z,15.23
2019-02-15T08:01:24.144Z,14.27
2019-02-15T08:03:53.186Z,14.13
2019-02-15T08:06:22.987Z,16.97
2019-02-15T08:08:52.060Z,16.40
2019-02-15T08:11:20.861Z,16.87
2019-02-15T08:13:49.945Z,15.20
2019-02-15T08:16:19.406Z,16.37
2019-02-15T08:18:48.712Z,15.23
2019-02-15T08:21:18.152Z,14.77
2019-02-15T08:23:47.356Z,15.17
2019-02-15T08:26:16.877Z,15.40
2019-02-15T08:28:47.353Z,14.53
2019-02-15T08:31:16.717Z,16.50
2019-02-15T08:33:45.480Z,14.20
2019-02-15T08:36:14.332Z,16.13
2019-02-15T08:38:43.150Z,15.10
2019-02-15T08:41:12.424Z,14.17
2019-02-15T08:43:41.596Z,15.50
2019-02-15T08:46:10.675Z,16.63
2019-02-15T08:48:45.869Z,14.20
2019-02-15T08:51:10.933Z,16.70
2019-02-15T08:53:40.066Z,14.70
2019-02-15T08:56:09.246Z,15.27
2019-02-15T08:58:38.866Z,14.73
2019-02-15T09:01:07.609Z,17.30
2019-02-15T09:03:36.877Z,17.13
2019-02-15T09:06:05.498Z,18.77
2019-02-15T09:08:34.623Z,17.23
2019-02-15T09:11:03.457Z,17.33
2019-02-15T09:13:32.616Z,16.77
2019-02-15T09:16:09.842Z,16.13
2019-02-15T09:18:32.517Z,15.73
2019-02-15T09:21:01.679Z,15.13
2019-02-15T09:23:32.868Z,13.00
2019-02-15T09:26:02.186Z,12.33
2019-02-15T09:28:32.982Z,13.37
2019-02-15T09:31:02.464Z,12.07
2019-02-15T09:33:31.834Z,12.53
2019-02-15T09:36:01.977Z,12.93
2019-02-15T09:38:31.046Z,13.53
2019-02-15T09:41:00.958Z,13.10
2019-02-15T09:43:30.926Z,12.00
2019-02-15T09:46:00.776Z,12.97
2019-02-15T09:48:30.246Z,12.67
2019-02-15T09:51:00.369Z,12.70
2019-02-15T09:53:29.577Z,12.40
2019-02-15T09:55:59.179Z,12.60
2019-02-15T09:58:28.528Z,13.20
2019-02-15T10:00:57.873Z,9.50
2019-02-15T10:03:26.528Z,12.77
2019-02-15T10:05:56.407Z,11.47
2019-02-15T10:08:26.388Z,12.53
2019-02-15T10:10:58.328Z,13.17
2019-02-15T10:13:27.925Z,14.17
2019-02-15T10:16:15.813Z,12.50
2019-02-15T10:19:03.573Z,13.20
2019-02-15T10:21:51.448Z,13.37
2019-02-15T10:24:19.963Z,14.23
2019-02-15T10:27:07.741Z,14.30
2019-02-15T10:29:55.554Z,11.57
2019-02-15T10:32:24.065Z,12.33
2019-02-15T10:35:11.955Z,12.03
2019-02-15T10:37:59.732Z,13.57
2019-02-15T10:40:47.644Z,13.37
2019-02-15T10:43:35.415Z,12.70
2019-02-15T10:46:23.223Z,14.50
2019-02-15T10:49:11.153Z,12.60
2019-02-15T10:51:58.975Z,11.37
2019-02-15T10:54:46.992Z,12.57
2019-02-15T10:57:17.758Z,13.80
2019-02-15T10:59:46.982Z,14.57
2019-02-15T11:02:16.398Z,14.50
2019-02-15T11:04:45.283Z,13.27
2019-02-15T11:07:14.328Z,13.20
2019-02-15T11:09:43.337Z,13.03
2019-02-15T11:12:12.265Z,13.37
2019-02-15T11:14:41.099Z,15.30
2019-02-15T11:17:10.375Z,13.07
2019-02-15T11:19:39.485Z,14.30
2019-02-15T11:22:08.474Z,10.40
2019-02-15T11:24:38.601Z,15.27
2019-02-15T11:27:07.611Z,13.77
2019-02-15T11:29:36.582Z,11.77
2019-02-15T11:32:05.963Z,13.53
2019-02-15T11:34:35.078Z,14.57
2019-02-15T11:37:04.567Z,14.40
2019-02-15T11:39:34.526Z,14.87
2019-02-15T11:42:03.764Z,13.73
2019-02-15T11:44:32.392Z,14.73
2019-02-15T11:47:01.371Z,16.33
2019-02-15T11:49:30.056Z,15.33
2019-02-15T11:51:59.106Z,14.33
2019-02-15T11:54:27.947Z,16.17
2019-02-15T11:56:56.927Z,15.50
2019-02-15T11:59:25.761Z,15.87
2019-02-15T12:01:54.861Z,14.60
2019-02-15T12:04:23.953Z,14.93
2019-02-15T12:06:52.779Z,15.03
2019-02-15T12:09:21.485Z,15.20
2019-02-15T12:11:50.330Z,14.77
2019-02-15T12:14:19.384Z,14.80
2019-02-15T12:16:48.322Z,14.03
2019-02-15T12:19:17.158Z,13.40
2019-02-15T12:21:45.674Z,14.77
2019-02-15T12:24:14.353Z,14.40
2019-02-15T12:26:42.858Z,14.27
2019-02-15T12:29:11.836Z,14.23
2019-02-15T12:31:40.967Z,13.03
2019-02-15T12:34:10.106Z,12.90
2019-02-15T12:36:38.899Z,13.87
2019-02-15T12:39:09.338Z,13.43
2019-02-15T12:41:38.078Z,12.53
2019-02-15T12:44:07.300Z,14.83
2019-02-15T12:46:35.997Z,12.70
2019-02-15T12:49:04.747Z,12.67
2019-02-15T12:51:33.467Z,13.37
2019-02-15T12:54:02.302Z,13.67
2019-02-15T12:56:31.485Z,13.37
2019-02-15T12:59:00.527Z,13.10
2019-02-15T13:01:29.476Z,13.70
2019-02-15T13:03:58.108Z,12.30
2019-02-15T13:06:28.917Z,13.43
2019-02-15T13:08:57.513Z,12.93
2019-02-15T13:11:26.736Z,14.50
2019-02-15T13:13:55.725Z,11.83
2019-02-15T13:16:24.591Z,12.53
2019-02-15T13:18:53.531Z,12.70
2019-02-15T13:21:22.315Z,13.27
2019-02-15T13:23:51.023Z,12.90
2019-02-15T13:26:19.983Z,13.43
2019-02-15T13:28:49.249Z,13.13
2019-02-15T13:31:18.210Z,12.10
2019-02-15T13:33:46.824Z,13.50
2019-02-15T13:36:15.413Z,12.70
2019-02-15T13:38:43.986Z,13.57
2019-02-15T13:41:13.131Z,13.17
2019-02-15T13:43:42.291Z,13.17
2019-02-15T13:46:10.957Z,14.43
2019-02-15T13:48:39.796Z,13.73
2019-02-15T13:51:08.795Z,12.20
2019-02-15T13:53:37.633Z,10.70
2019-02-15T13:56:06.581Z,12.07
2019-02-15T13:58:35.214Z,10.90
2019-02-15T14:01:03.935Z,13.77
2019-02-15T14:03:32.880Z,12.47
2019-02-15T14:06:01.737Z,13.03
2019-02-15T14:08:30.465Z,13.30
2019-02-15T14:10:59.390Z,14.57
2019-02-15T14:13:28.024Z,13.50
2019-02-15T14:15:56.842Z,11.57
2019-02-15T14:18:25.524Z,11.50
2019-02-15T14:20:54.177Z,13.50
2019-02-15T14:23:23.899Z,11.70
2019-02-15T14:25:52.686Z,12.63
2019-02-15T14:28:21.432Z,11.80
2019-02-15T14:30:50.191Z,11.80
2019-02-15T14:33:18.810Z,12.47
2019-02-15T14:35:47.792Z,11.40
2019-02-15T14:38:16.435Z,12.63
2019-02-15T14:40:45.114Z,11.33
2019-02-15T14:43:13.694Z,12.90
2019-02-15T14:45:42.356Z,11.30
2019-02-15T14:48:10.844Z,12.73
2019-02-15T14:50:40.692Z,11.03
2019-02-15T14:53:09.479Z,12.27
2019-02-15T14:55:38.099Z,12.23
2019-02-15T14:58:06.825Z,12.70
2019-02-15T15:00:35.834Z,11.50
2019-02-15T15:03:05.166Z,12.13
2019-02-15T15:05:34.035Z,13.00
2019-02-15T15:08:02.694Z,12.13
2019-02-15T15:10:32.014Z,13.10
2019-02-15T15:13:00.898Z,11.90
2019-02-15T15:15:29.738Z,10.73
2019-02-15T15:18:06.169Z,10.60
2019-02-15T15:20:29.205Z,10.97
2019-02-15T15:22:58.276Z,11.67
2019-02-15T15:25:27.222Z,11.80
2019-02-15T15:27:56.266Z,12.13
2019-02-15T15:30:26.397Z,10.40
2019-02-15T15:32:55.082Z,11.83
2019-02-15T15:35:23.891Z,10.17
2019-02-15T15:37:52.843Z,11.00
2019-02-15T15:40:21.632Z,11.87
2019-02-15T15:42:50.879Z,11.67
2019-02-15T15:45:19.610Z,12.33
2019-02-15T15:47:48.597Z,12.20
2019-02-15T15:50:17.166Z,11.40
2019-02-15T15:52:45.992Z,12.00
2019-02-15T15:55:14.935Z,11.87
2019-02-15T15:57:43.804Z,11.67
2019-02-15T16:00:14.674Z,12.10
2019-02-15T16:02:43.848Z,11.77
2019-02-15T16:05:13.695Z,10.93
2019-02-15T16:07:43.555Z,12.00
2019-02-15T16:10:14.746Z,12.57
2019-02-15T16:12:43.647Z,12.80
2019-02-15T16:15:13.492Z,12.53
2019-02-15T16:17:42.442Z,11.57
2019-02-15T16:20:12.483Z,36.83
2019-02-15T16:22:41.459Z,23.20
2019-02-15T16:25:11.138Z,21.27
2019-02-15T16:27:39.961Z,17.50
2019-02-15T16:30:16.215Z,15.07
2019-02-15T16:32:45.238Z,11.97
2019-02-15T16:35:14.082Z,12.33
2019-02-15T16:37:42.750Z,12.57
2019-02-15T16:40:15.952Z,17.87
2019-02-15T16:42:44.707Z,12.60
2019-02-15T16:45:17.449Z,11.57
2019-02-15T16:47:46.403Z,10.70
2019-02-15T16:50:15.351Z,11.07
2019-02-15T16:52:44.129Z,11.80
2019-02-15T16:55:13.516Z,11.20
2019-02-15T16:57:44.601Z,11.00
2019-02-15T17:00:14.349Z,11.20
2019-02-15T17:02:43.106Z,10.90
2019-02-15T17:05:12.454Z,12.97
2019-02-15T17:07:41.301Z,11.27
2019-02-15T17:10:11.300Z,11.17
2019-02-15T17:12:40.139Z,10.43
2019-02-15T17:15:11.390Z,10.80
2019-02-15T17:17:40.039Z,11.13
2019-02-15T17:20:09.726Z,9.40
2019-02-15T17:22:38.505Z,9.90
2019-02-15T17:25:11.669Z,9.60
2019-02-15T17:27:40.357Z,9.87
2019-02-15T17:30:12.183Z,9.90
2019-02-15T17:32:40.826Z,10.20
2019-02-15T17:35:10.912Z,10.37
2019-02-15T17:37:39.895Z,9.60
2019-02-15T17:40:11.182Z,10.53
2019-02-15T17:42:40.287Z,9.97
2019-02-15T17:45:10.788Z,11.37
2019-02-15T17:47:39.833Z,11.90
2019-02-15T17:50:10.353Z,11.60
2019-02-15T17:52:38.895Z,12.77
2019-02-15T17:55:09.246Z,21.60
2019-02-15T17:57:38.056Z,21.50
2019-02-15T18:00:12.607Z,14.47
2019-02-15T18:02:41.229Z,14.43
2019-02-15T18:05:12.166Z,12.20
2019-02-15T18:07:40.941Z,12.93
2019-02-15T18:10:09.527Z,12.30
2019-02-15T18:12:38.163Z,13.00
2019-02-15T18:15:07.270Z,12.80
2019-02-15T18:17:35.844Z,11.90
2019-02-15T18:20:05.965Z,12.20
2019-02-15T18:22:35.069Z,13.37
2019-02-15T18:25:04.599Z,13.80
2019-02-15T18:27:33.810Z,18.00
2019-02-15T18:30:02.819Z,19.30
2019-02-15T18:32:32.068Z,19.30
2019-02-15T18:35:00.709Z,19.33
2019-02-15T18:37:29.398Z,17.73
2019-02-15T18:39:58.078Z,17.30
2019-02-15T18:42:26.691Z,17.90
2019-02-15T18:44:55.125Z,16.67
2019-02-15T18:47:29.467Z,16.93
2019-02-15T18:49:57.927Z,18.23
2019-02-15T18:52:26.398Z,16.70
2019-02-15T18:54:55.130Z,17.53
2019-02-15T18:57:23.738Z,16.60
2019-02-15T18:59:52.486Z,16.00
2019-02-15T19:02:21.246Z,14.57
2019-02-15T19:04:49.971Z,14.47
2019-02-15T19:07:18.476Z,16.23
2019-02-15T19:09:47.039Z,13.23
2019-02-15T19:12:15.849Z,16.50
2019-02-15T19:14:44.354Z,16.60
2019-02-15T19:17:13.231Z,15.40
2019-02-15T19:19:41.815Z,15.47
2019-02-15T19:22:10.438Z,15.73
2019-02-15T19:24:38.913Z,14.30
2019-02-15T19:27:07.438Z,13.97
2019-02-15T19:29:35.932Z,14.37
2019-02-15T19:32:04.550Z,13.10
2019-02-15T19:34:33.155Z,13.20
2019-02-15T19:37:01.984Z,15.00
2019-02-15T19:39:30.515Z,12.83
2019-02-15T19:41:59.488Z,13.50
2019-02-15T19:44:28.185Z,12.40
2019-02-15T19:46:56.754Z,13.57
2019-02-15T19:49:25.612Z,12.90
2019-02-15T19:51:54.345Z,14.30
2019-02-15T19:54:22.971Z,12.60
2019-02-15T19:56:51.588Z,13.77
2019-02-15T19:59:20.347Z,13.77
2019-02-15T20:01:48.787Z,13.47
2019-02-15T20:04:17.557Z,14.10
2019-02-15T20:06:46.311Z,13.23
2019-02-15T20:09:15.138Z,14.30
2019-02-15T20:11:43.740Z,14.80
2019-02-15T20:14:12.405Z,14.23
2019-02-15T20:16:41.925Z,14.07
2019-02-15T20:19:10.528Z,14.20
2019-02-15T20:21:39.415Z,15.17
2019-02-15T20:24:07.880Z,15.60
2019-02-15T20:26:36.537Z,15.17
2019-02-15T20:29:05.084Z,15.53
2019-02-15T20:31:33.769Z,13.60
2019-02-15T20:34:02.297Z,15.30
2019-02-15T20:36:30.906Z,15.47
2019-02-15T20:38:59.581Z,13.67
2019-02-15T20:41:28.295Z,14.53
2019-02-15T20:43:57.064Z,13.37
2019-02-15T20:46:25.562Z,14.00
2019-02-15T20:49:04.286Z,13.77
2019-02-15T20:51:24.552Z,14.20
2019-02-15T20:53:53.399Z,14.00
2019-02-15T20:56:21.912Z,14.97
2019-02-15T20:58:50.641Z,17.17
2019-02-15T21:01:19.359Z,15.90
2019-02-15T21:03:48.354Z,14.83
2019-02-15T21:06:16.961Z,13.90
2019-02-15T21:08:45.715Z,14.40
2019-02-15T21:11:14.570Z,13.87
2019-02-15T21:13:43.175Z,14.10
2019-02-15T21:16:11.923Z,14.07
2019-02-15T21:18:40.809Z,14.87
2019-02-15T21:21:09.849Z,13.03
2019-02-15T21:23:38.339Z,12.97
2019-02-15T21:26:06.918Z,12.73
2019-02-15T21:28:35.522Z,14.47
2019-02-15T21:31:04.256Z,16.53
2019-02-15T21:33:33.046Z,17.83
2019-02-15T21:36:01.630Z,22.00
2019-02-15T21:38:30.227Z,14.87
2019-02-15T21:40:59.085Z,18.27
2019-02-15T21:43:27.731Z,14.50
2019-02-15T21:45:56.274Z,14.10
2019-02-15T21:48:25.136Z,14.67
2019-02-15T21:50:53.715Z,14.53
2019-02-15T21:53:22.453Z,14.30
2019-02-15T21:55:51.080Z,13.00
2019-02-15T21:58:19.711Z,13.40
2019-02-15T22:00:48.643Z,15.00
2019-02-15T22:03:17.149Z,14.40
2019-02-15T22:05:45.898Z,14.53
2019-02-15T22:08:14.660Z,13.57
2019-02-15T22:10:43.280Z,13.03
2019-02-15T22:13:11.815Z,13.23
2019-02-15T22:15:40.480Z,14.40
2019-02-15T22:18:09.454Z,14.53
2019-02-15T22:20:38.113Z,14.23
2019-02-15T22:23:06.778Z,15.50
2019-02-15T22:25:35.418Z,14.00
2019-02-15T22:28:04.334Z,14.33
2019-02-15T22:30:32.950Z,14.47
2019-02-15T22:33:01.506Z,14.87
2019-02-15T22:35:30.002Z,14.70
2019-02-15T22:37:58.654Z,13.80
2019-02-15T22:40:34.991Z,16.13
2019-02-15T22:43:09.036Z,15.37
2019-02-15T22:45:37.585Z,14.13
2019-02-15T22:48:06.184Z,13.10
2019-02-15T22:50:36.294Z,13.90
2019-02-15T22:53:05.407Z,14.57
2019-02-15T22:55:33.893Z,14.40
2019-02-15T22:58:04.539Z,13.30
2019-02-15T23:00:49.232Z,13.87
2019-02-15T23:03:19.904Z,14.07
2019-02-15T23:05:48.563Z,12.17
2019-02-15T23:08:17.195Z,13.90
2019-02-15T23:10:45.778Z,13.87
2019-02-15T23:13:14.431Z,13.70
2019-02-15T23:15:43.011Z,14.23
2019-02-15T23:18:11.732Z,13.37
2019-02-15T23:20:45.384Z,13.70
2019-02-15T23:23:10.817Z,15.10
2019-02-15T23:25:39.547Z,12.03
2019-02-15T23:28:08.136Z,12.20
2019-02-15T23:30:36.699Z,12.57
2019-02-15T23:33:05.404Z,13.53
2019-02-15T23:35:33.952Z,13.23
2019-02-15T23:38:02.594Z,12.97
2019-02-15T23:40:31.389Z,12.77
2019-02-15T23:43:00.003Z,11.67
2019-02-15T23:45:28.784Z,12.10
2019-02-15T23:47:57.305Z,14.10
2019-02-15T23:50:26.149Z,12.13
2019-02-15T23:52:54.767Z,13.57
2019-02-15T23:55:23.484Z,13.67
2019-02-15T23:57:52.224Z,11.77
